Latest Coastal Weather Observations for Kowanyama

IDQ60701

Issued at 9:51 am EST Sunday 29 March 2015 (issued every 10 minutes, with the page automatically refreshed every 10 minutes)

About coastal observations | Map of coastal stations | Coastal observations for QLD | Marine services | Other Formats
Station Details ID: 029038 Name: KOWANYAMA AIRPORT Lat: -15.48 Lon: 141.75 Height: 9.6 m
Data from the previous 72 hours. | See also: Recent months at Kowanyama
Date/Time
EST
Temp

°C
Wind Pressure Rain
since 9am
mm
Weather Cloud Vis
km
Sea
Height
m
Swell
Dir
 
Speed
knots
Gust
knots
hPa Trend Height
m
Period
s
Dir
29/09:30am 29.2 ESE 8 11 1015.5 - 0.0 - - - - - - -
29/08:30am 26.5 ESE 6 8 1014.9 - 0.0 - - - - - - -
29/08:00am 25.7 SE 5 6 1014.7 - 0.0 - Partly cloudy - - - - -
29/07:30am 24.6 ESE 4 5 1014.2 - 0.0 - Partly cloudy - - - - -
29/07:00am 22.9 ESE 4 5 1013.8 - 0.0 - Partly cloudy - - - - -
29/06:00am 23.1 ESE 3 4 1013.2 - 0.0 - Partly cloudy - - - - -
29/05:30am 22.8 ENE 3 4 1013.0 - 0.0 - - - - - - -
29/05:00am 23.3 ESE 3 4 1012.9 - 0.0 - - - - - - -
29/04:30am 23.1 E 2 3 1012.7 - 0.0 - - - - - - -
29/04:00am 23.4 CALM 0 0 1012.6 - 0.0 - - - - - - -
29/03:30am 23.6 CALM 0 0 1012.8 - 0.0 - - - - - - -
29/03:00am 23.9 CALM 0 0 1012.8 - 0.0 - - - - - - -
29/02:30am 24.1 CALM 0 3 1012.9 - 0.0 - - - - - - -
29/02:00am 24.8 CALM 0 0 1013.2 - 0.0 - - - - - - -
29/01:30am 25.2 CALM 0 3 1013.3 - 0.0 - - - - - - -
29/01:00am 25.5 NE 3 4 1013.7 - 0.0 - - - - - - -
29/12:30am 25.4 ENE 4 5 1013.8 - 0.0 - - - - - - -
 
Date/Time
EST
Temp

°C
Wind Pressure Rain
since 9am
mm
Weather Cloud Vis
km
Sea
Height
m
Swell
Dir
 
Speed
knots
Gust
knots
hPa Trend Height
m
Period
s
Dir
28/11:30pm 25.5 NE 5 7 1013.5 - 0.0 - - - - - - -
28/11:00pm 26.6 SSE 2 3 1013.4 - 0.0 - - - - - - -
28/10:30pm 26.5 CALM 0 0 1013.5 - 0.0 - - - - - - -
28/10:00pm 26.8 SW 2 4 1013.3 - 0.0 - - - - - - -
28/09:30pm 27.0 S 1 4 1013.1 - 0.0 - - - - - - -
28/09:00pm 27.2 SW 2 3 1013.0 - 0.0 - - - - - - -
28/08:30pm 27.5 CALM 0 3 1012.7 - 0.0 - - - - - - -
28/08:00pm 27.8 WSW 4 6 1012.5 - 0.0 - - - - - - -
28/07:30pm 28.3 WSW 5 7 1012.0 - 0.0 - Partly cloudy - - - - -
28/07:00pm 28.7 W 5 8 1011.5 - 0.0 - - - - - - -
28/06:30pm 30.0 NE 1 3 1011.1 - 0.0 - Partly cloudy - - - - -
28/06:00pm 31.9 ENE 3 4 1010.7 - 0.0 - Mostly clear - - - - -
28/05:30pm 33.0 ENE 4 5 1010.4 - 0.0 - Partly cloudy - - - - -
28/05:00pm 32.9 E 6 8 1010.2 - 0.0 - Partly cloudy - - - - -
28/04:30pm 33.8 ENE 6 9 1010.1 - 0.0 - - - - - - -
28/04:00pm 33.9 ESE 6 9 1010.0 - 0.0 - Partly cloudy - - - - -
28/03:30pm 34.6 ESE 8 12 1010.1 - 0.0 - Partly cloudy - - - - -
28/03:00pm 34.1 ESE 8 11 1010.4 - 0.0 - Mostly clear - - - - -
28/02:30pm 33.8 E 9 15 1010.7 - 0.0 - Partly cloudy - - - - -
28/02:00pm 33.1 ENE 6 11 1011.1 - 0.0 - - - - - - -
28/01:30pm 32.9 ENE 7 11 1011.6 - 0.0 - Partly cloudy - - - - -
28/01:00pm 33.1 ESE 6 10 1012.1 - 0.0 - Partly cloudy - - - - -
28/12:30pm 32.5 ENE 6 9 1012.6 - 0.0 - Partly cloudy - - - - -
28/12:00pm 32.0 ENE 8 13 1013.5 - 0.0 - - - - - - -
28/11:30am 31.3 ENE 9 13 1014.0 - 0.0 - - - - - - -
28/11:00am 30.7 E 9 13 1014.5 - 0.0 - - - - - - -
28/10:30am 30.7 ENE 8 12 1014.8 - 0.0 - - - - - - -
28/10:00am 29.5 E 9 14 1015.1 - 0.0 - - - - - - -
28/09:30am 28.9 ENE 7 12 1015.2 - 0.0 - - - - - - -
28/09:00am 27.7 E 7 10 1015.2 - 0.2 - - - - - - -
28/08:30am 27.0 ENE 6 9 1014.9 - 0.2 - - - - - - -
28/08:00am 25.8 ENE 4 6 1014.5 - 0.2 - - - - - - -
28/07:30am 24.3 ENE 3 4 1014.3 - 0.2 - - - - - - -
28/07:00am 22.8 E 3 3 1014.0 - 0.2 - - - - - - -
28/06:30am 23.0 CALM 0 0 1014.0 - 0.2 - - - - - - -
28/06:00am 23.2 CALM 0 0 1013.7 - 0.2 - - - - - - -
28/05:30am 23.3 CALM 0 0 1013.4 - 0.2 - - - - - - -
28/05:00am 23.4 CALM 0 0 1013.1 - 0.2 - - - - - - -
28/04:30am 23.5 CALM 0 0 1012.8 - 0.2 - - - - - - -
28/04:00am 23.9 CALM 0 0 1012.8 - 0.2 - - - - - - -
28/03:30am 24.1 CALM 0 0 1012.8 - 0.2 - - - - - - -
28/03:00am 24.4 CALM 0 0 1012.8 - 0.2 - - - - - - -
28/02:30am 24.7 CALM 0 0 1012.7 - 0.2 - - - - - - -
28/02:00am 24.8 NE 4 6 1012.8 - 0.2 - - - - - - -
28/01:30am 24.6 ENE 3 5 1012.9 - 0.2 - - - - - - -
28/01:00am 24.8 NE 4 5 1013.2 - 0.2 - - - - - - -
28/12:30am 24.9 ENE 4 6 1013.4 - 0.2 - - - - - - -
28/12:00am 25.0 NE 5 6 1013.3 - 0.2 - - - - - - -
 
Date/Time
EST
Temp

°C
Wind Pressure Rain
since 9am
mm
Weather Cloud Vis
km
Sea
Height
m
Swell
Dir
 
Speed
knots
Gust
knots
hPa Trend Height
m
Period
s
Dir
27/11:30pm 25.1 CALM 0 0 1013.6 - 0.2 - - - - - - -
27/11:00pm 25.1 CALM 0 0 1013.4 - 0.2 - - - - - - -
27/10:30pm 26.0 CALM 0 0 1013.5 - 0.2 - - - - - - -
27/10:00pm 26.1 CALM 0 0 1013.5 - 0.2 - - - - - - -
27/09:30pm 26.6 CALM 0 0 1013.3 - 0.2 - - - - - - -
27/09:00pm 26.9 CALM 0 0 1013.1 - 0.2 - - - - - - -
27/08:30pm 27.1 CALM 0 0 1012.9 - 0.2 - - - - - - -
27/08:00pm 27.3 CALM 0 0 1012.6 - 0.2 - - - - - - -
27/07:30pm 27.8 W 5 6 1012.3 - 0.2 - - - - - - -
27/07:00pm 28.5 WNW 4 6 1011.8 - 0.2 - - - - - - -
27/06:30pm 30.0 ENE 1 3 1011.4 - 0.2 - - - - - - -
27/06:00pm 31.7 ENE 3 6 1010.9 - 0.2 - - - - - - -
27/05:30pm 32.9 ENE 4 7 1010.6 - 0.2 - Partly cloudy - - - - -
27/05:00pm 33.5 E 5 7 1010.4 - 0.2 - Partly cloudy - - - - -
27/04:30pm 33.8 NE 3 7 1010.3 - 0.2 - Partly cloudy - - - - -
27/04:00pm 33.4 E 5 9 1010.4 - 0.2 - Partly cloudy - - - - -
27/03:30pm 33.7 ESE 7 10 1010.7 - 0.2 - Partly cloudy - - - - -
27/03:00pm 33.4 N 4 6 1011.2 - 0.2 - Cloudy - - - - -
27/02:30pm 32.7 SSE 3 6 1011.4 - 0.2 - Partly cloudy - - - - -
27/02:00pm 33.3 NNE 4 7 1011.9 - 0.2 - Partly cloudy - - - - -
27/01:30pm 32.9 NE 6 8 1012.4 - 0.2 - Partly cloudy - - - - -
27/01:00pm 32.4 NE 5 8 1012.9 - 0.2 - - - - - - -
27/12:30pm 32.0 NE 6 9 1013.5 - 0.2 - - - - - - -
27/12:00pm 31.5 NE 6 9 1014.1 - 0.2 - - - - - - -
27/11:30am 30.6 E 6 8 1014.7 - 0.2 - Partly cloudy - - - - -
27/11:00am 30.8 ENE 5 9 1015.3 - 0.0 - - - - - - -
27/10:30am 29.9 ESE 7 11 1015.5 - 0.0 - - - - - - -
27/10:00am 29.2 E 6 9 1015.6 - 0.0 - - - - - - -
27/09:30am 28.5 ENE 7 9 1015.7 - 0.0 - - - - - - -
27/09:00am 27.8 NE 5 11 1015.4 - 8.4 - - - - - - -
27/08:30am 27.0 NE 5 8 1015.1 - 8.4 - - - - - - -
27/08:00am 25.9 ENE 3 5 1014.7 - 8.4 - - - - - - -
27/07:30am 24.8 CALM 0 4 1014.3 - 8.4 - - - - - - -
27/07:00am 23.9 ESE 3 4 1013.9 - 8.4 - - - - - - -
27/06:30am 23.7 S 1 3 1013.9 - 8.4 - - - - - - -
27/06:00am 24.1 SSE 2 3 1013.8 - 8.4 - Mostly clear - - - - -
27/05:30am 24.1 NE 2 4 1013.7 - 8.4 - Partly cloudy - - - - -
27/05:00am 24.2 CALM 0 0 1013.6 - 8.4 - Partly cloudy - - - - -
27/04:30am 24.1 CALM 0 0 1013.4 - 8.4 - - - - - - -
27/04:00am 24.2 NNE 2 5 1013.1 - 8.4 - - - - - - -
27/03:30am 24.2 NE 4 6 1013.2 - 8.4 - - - - - - -
27/03:00am 24.3 NE 3 5 1013.2 - 8.4 Rain Partly cloudy - - - - -
27/02:30am 24.4 NE 3 5 1013.3 - 8.2 - Partly cloudy - - - - -
27/02:00am 24.5 ESE 4 5 1013.7 - 8.2 - Partly cloudy - - - - -
27/01:30am 24.3 NE 5 7 1013.8 - 8.0 - Cloudy - - - - -
27/01:00am 24.1 NE 6 8 1014.2 - 7.8 - Cloudy - - - - -
27/12:30am 24.0 E 3 5 1014.9 - 7.8 - Partly cloudy - - - - -
27/12:00am 23.8 ENE 5 9 1015.1 - 7.8 - Cloudy - - - - -
 
Date/Time
EST
Temp

°C
Wind Pressure Rain
since 9am
mm
Weather Cloud Vis
km
Sea
Height
m
Swell
Dir
 
Speed
knots
Gust
knots
hPa Trend Height
m
Period
s
Dir
26/11:30pm 23.9 N 3 5 1014.9 - 7.8 - Partly cloudy - - - - -
26/11:00pm 24.0 NNW 3 4 1015.2 - 7.8 - Partly cloudy - - - - -
26/10:30pm 24.0 SE 4 6 1015.5 - 7.6 - Partly cloudy - - - - -
26/10:00pm 23.9 S 2 5 1015.5 - 7.0 - Partly cloudy - - - - -
26/09:30pm 24.2 E 3 4 1014.7 - 6.4 - Cloudy - - - - -
26/09:00pm 24.4 SSW 5 8 1014.3 - 6.4 - Cloudy - - - - -
26/08:30pm 24.8 SW 9 14 1014.4 - 6.2 - Partly cloudy - - - - -
26/08:00pm 25.0 SSW 8 11 1014.5 - 6.2 - Partly cloudy - - - - -
26/07:30pm 25.3 WSW 4 6 1013.3 - 6.2 - Partly cloudy - - - - -
26/07:00pm 25.8 SSW 8 10 1013.0 - 6.2 - Partly cloudy - - - - -
26/06:30pm 27.3 NW 4 6 1012.3 - 6.2 - Partly cloudy - - - - -
26/06:00pm 27.5 NNW 6 9 1012.5 - 6.0 - Cloudy - - - - -
26/05:30pm 27.7 WNW 8 11 1011.6 - 6.0 - Cloudy - - - - -
26/05:00pm 27.0 NW 7 9 1011.4 - 6.0 - Partly cloudy - - - - -
26/04:30pm 29.1 WSW 8 11 1011.4 - 1.8 - Partly cloudy - - - - -
26/04:00pm 30.6 NW 8 11 1011.1 - 1.2 - Partly cloudy - - - - -
26/03:30pm 29.8 WNW 9 11 1011.2 - 1.2 - Partly cloudy - - - - -
26/03:00pm 32.6 WNW 10 14 1011.1 - 0.0 - Cloudy - - - - -
26/02:30pm 32.5 W 9 13 1011.4 - 0.0 - Partly cloudy - - - - -
26/02:00pm 33.7 SSW 3 6 1011.7 - 0.0 - Partly cloudy - - - - -
26/01:30pm 33.6 ESE 5 7 1012.3 - 0.0 - - - - - - -
26/01:00pm 33.1 E 3 5 1012.9 - 0.0 - Partly cloudy - - - - -
26/12:30pm 32.6 WSW 4 6 1013.6 - 0.0 - Partly cloudy - - - - -
26/12:00pm 33.0 N 3 7 1014.2 - 0.0 - - - - - - -
26/11:30am 32.2 SSE 2 7 1014.6 - 0.0 - - - - - - -
26/11:00am 32.1 N 2 4 1014.8 - 0.0 - - - - - - -
26/10:30am 31.0 NNW 4 6 1014.9 - 0.0 - Partly cloudy - - - - -
26/10:00am 30.9 E 3 6 1015.1 - 0.0 - Partly cloudy - - - - -

Other Formats:

Comma delimited format used in spreadsheet applications
http://www.bom.gov.au/fwo/IDQ60701/IDQ60701.94268.axf

JavaScript Object Notation format (JSON) in row-major order
http://www.bom.gov.au/fwo/IDQ60701/IDQ60701.94268.json